createdAt,value
2019-04-14T00:00:05.487Z,55.79
2019-04-14T00:00:40.580Z,55.95
2019-04-14T00:01:17.505Z,56.34
2019-04-14T00:02:03.194Z,56.90
2019-04-14T00:02:36.335Z,57.21
2019-04-14T00:03:10.648Z,58.09
2019-04-14T00:03:47.916Z,58.51
2019-04-14T00:04:24.773Z,58.96
2019-04-14T00:04:57.213Z,59.35
2019-04-14T00:05:31.405Z,59.87
2019-04-14T00:06:03.303Z,60.33
2019-04-14T00:06:35.279Z,60.87
2019-04-14T00:07:06.485Z,61.21
2019-04-14T00:07:38.477Z,61.64
2019-04-14T00:08:10.957Z,61.98
2019-04-14T00:08:43.617Z,62.40
2019-04-14T00:09:16.229Z,63.15
2019-04-14T00:09:47.609Z,64.09
2019-04-14T00:10:20.275Z,64.29
2019-04-14T00:10:52.856Z,64.37
2019-04-14T00:11:24.161Z,64.03
2019-04-14T00:11:55.393Z,63.18
2019-04-14T00:12:27.317Z,62.19
2019-04-14T00:12:58.652Z,61.37
2019-04-14T00:13:30.648Z,60.39
2019-04-14T00:14:03.105Z,59.37
2019-04-14T00:14:36.301Z,58.32
2019-04-14T00:15:23.408Z,56.98
2019-04-14T00:15:47.048Z,56.40
2019-04-14T00:16:16.372Z,56.11
2019-04-14T00:16:48.830Z,56.09
2019-04-14T00:17:21.526Z,56.17
2019-04-14T00:17:52.855Z,56.35
2019-04-14T00:18:25.048Z,56.71
2019-04-14T00:18:56.292Z,57.19
2019-04-14T00:19:28.372Z,57.70
2019-04-14T00:19:59.555Z,58.00
2019-04-14T00:20:31.532Z,58.47
2019-04-14T00:21:02.756Z,58.80
2019-04-14T00:21:34.632Z,59.33
2019-04-14T00:22:05.846Z,59.79
2019-04-14T00:22:38.117Z,60.16
2019-04-14T00:23:09.346Z,60.43
2019-04-14T00:23:41.241Z,60.80
2019-04-14T00:24:12.465Z,61.28
2019-04-14T00:24:44.587Z,61.64
2019-04-14T00:25:15.847Z,62.10
2019-04-14T00:25:47.675Z,62.47
2019-04-14T00:26:24.797Z,63.06
2019-04-14T00:26:57.342Z,63.92
2019-04-14T00:27:28.754Z,64.20
2019-04-14T00:28:00.772Z,63.81
2019-04-14T00:28:32.011Z,63.19
2019-04-14T00:29:04.473Z,62.28
2019-04-14T00:29:37.054Z,61.54
2019-04-14T00:30:11.702Z,60.47
2019-04-14T00:30:43.319Z,59.62
2019-04-14T00:31:15.199Z,58.21
2019-04-14T00:31:47.462Z,56.89
2019-04-14T00:32:20.392Z,56.12
2019-04-14T00:32:53.734Z,55.77
2019-04-14T00:33:28.033Z,55.72
2019-04-14T00:34:01.291Z,55.70
2019-04-14T00:34:35.308Z,55.93
2019-04-14T00:35:08.603Z,56.37
2019-04-14T00:35:40.868Z,56.72
2019-04-14T00:36:17.591Z,57.15
2019-04-14T00:37:05.627Z,57.58
2019-04-14T00:37:40.117Z,57.84
2019-04-14T00:38:19.530Z,58.37
2019-04-14T00:38:52.354Z,58.83
2019-04-14T00:39:25.425Z,59.45
2019-04-14T00:39:59.754Z,59.79
2019-04-14T00:40:49.748Z,60.05
2019-04-14T00:41:37.101Z,60.13
2019-04-14T00:42:19.123Z,60.87
2019-04-14T00:42:53.805Z,61.07
2019-04-14T00:43:28.781Z,61.95
2019-04-14T00:44:01.285Z,62.42
2019-04-14T00:44:38.702Z,63.23
2019-04-14T00:45:15.477Z,64.48
2019-04-14T00:45:53.084Z,64.99
2019-04-14T00:46:23.666Z,64.68
2019-04-14T00:46:56.762Z,64.16
2019-04-14T00:47:31.044Z,63.30
2019-04-14T00:48:10.767Z,62.31
2019-04-14T00:48:38.660Z,61.44
2019-04-14T00:49:11.439Z,60.47
2019-04-14T00:49:42.655Z,59.33
2019-04-14T00:50:14.675Z,58.12
2019-04-14T00:50:45.978Z,56.95
2019-04-14T00:51:17.744Z,56.28
2019-04-14T00:51:48.968Z,56.11
2019-04-14T00:52:21.180Z,56.00
2019-04-14T00:52:52.426Z,56.24
2019-04-14T00:53:23.658Z,56.52
2019-04-14T00:53:55.724Z,56.99
2019-04-14T00:54:28.197Z,57.37
2019-04-14T00:54:59.433Z,57.92
2019-04-14T00:55:31.771Z,58.32
2019-04-14T00:56:03.961Z,58.72
2019-04-14T00:56:35.399Z,58.89
2019-04-14T00:57:07.318Z,59.33
2019-04-14T00:57:39.756Z,59.64
2019-04-14T00:58:11.041Z,60.00
2019-04-14T00:58:43.272Z,60.49
2019-04-14T00:59:15.650Z,60.94
2019-04-14T00:59:46.992Z,61.24
2019-04-14T01:00:19.273Z,61.81
2019-04-14T01:00:51.760Z,62.10
2019-04-14T01:01:24.286Z,62.55
2019-04-14T01:01:56.754Z,63.46
2019-04-14T01:02:28.194Z,64.25
2019-04-14T01:03:00.396Z,64.46
2019-04-14T01:03:33.040Z,64.23
2019-04-14T01:04:05.530Z,63.72
2019-04-14T01:04:36.827Z,63.07
2019-04-14T01:05:08.958Z,61.89
2019-04-14T01:05:41.428Z,60.98
2019-04-14T01:06:12.854Z,60.03
2019-04-14T01:06:44.853Z,59.00
2019-04-14T01:07:17.370Z,58.04
2019-04-14T01:07:48.507Z,56.67
2019-04-14T01:08:20.594Z,56.09
2019-04-14T01:08:53.228Z,55.78
2019-04-14T01:09:24.636Z,55.92
2019-04-14T01:09:55.828Z,56.15
2019-04-14T01:10:27.836Z,56.37
2019-04-14T01:10:59.105Z,56.72
2019-04-14T01:11:31.397Z,57.07
2019-04-14T01:12:03.809Z,57.68
2019-04-14T01:12:35.118Z,58.11
2019-04-14T01:13:09.571Z,58.74
2019-04-14T01:13:39.741Z,59.12
2019-04-14T01:14:11.173Z,59.77
2019-04-14T01:14:43.133Z,60.47
2019-04-14T01:15:15.727Z,60.88
2019-04-14T01:15:54.865Z,61.39
2019-04-14T01:16:23.305Z,61.85
2019-04-14T01:16:53.853Z,62.25
2019-04-14T01:17:26.499Z,62.65
2019-04-14T01:17:57.873Z,63.47
2019-04-14T01:18:29.839Z,64.53
2019-04-14T01:19:01.201Z,65.00
2019-04-14T01:19:33.116Z,64.90
2019-04-14T01:20:05.623Z,64.21
2019-04-14T01:20:36.911Z,63.26
2019-04-14T01:21:08.945Z,62.22
2019-04-14T01:21:41.315Z,61.33
2019-04-14T01:22:12.646Z,60.35
2019-04-14T01:22:44.543Z,59.52
2019-04-14T01:23:17.085Z,58.21
2019-04-14T01:23:48.511Z,56.94
2019-04-14T01:24:20.697Z,56.26
2019-04-14T01:24:53.185Z,56.06
2019-04-14T01:25:24.587Z,56.01
2019-04-14T01:25:56.415Z,56.08
2019-04-14T01:26:28.819Z,56.19
2019-04-14T01:27:00.172Z,56.61
2019-04-14T01:27:31.995Z,57.06
2019-04-14T01:28:04.576Z,57.44
2019-04-14T01:28:35.946Z,57.89
2019-04-14T01:29:08.202Z,58.48
2019-04-14T01:29:40.473Z,58.80
2019-04-14T01:30:11.837Z,59.27
2019-04-14T01:30:43.709Z,59.66
2019-04-14T01:31:16.138Z,59.79
2019-04-14T01:31:47.489Z,60.01
2019-04-14T01:32:19.686Z,60.39
2019-04-14T01:32:52.121Z,60.77
2019-04-14T01:33:23.544Z,61.28
2019-04-14T01:33:55.554Z,61.67
2019-04-14T01:34:28.034Z,61.99
2019-04-14T01:34:59.500Z,62.30
2019-04-14T01:35:31.456Z,62.68
2019-04-14T01:36:03.849Z,63.40
2019-04-14T01:36:35.256Z,64.20
2019-04-14T01:37:07.295Z,64.30
2019-04-14T01:37:39.670Z,64.06
2019-04-14T01:38:10.944Z,63.42
2019-04-14T01:38:42.829Z,62.50
2019-04-14T01:39:15.372Z,61.49
2019-04-14T01:39:46.758Z,60.68
2019-04-14T01:40:18.497Z,59.61
2019-04-14T01:40:50.912Z,58.50
2019-04-14T01:41:22.156Z,57.23
2019-04-14T01:41:54.394Z,56.43
2019-04-14T01:42:26.689Z,55.99
2019-04-14T01:42:59.425Z,55.84
2019-04-14T01:43:32.023Z,55.84
2019-04-14T01:44:04.563Z,56.08
2019-04-14T01:44:35.932Z,56.37
2019-04-14T01:45:10.022Z,56.68
2019-04-14T01:45:42.533Z,57.07
2019-04-14T01:46:18.637Z,57.61
2019-04-14T01:46:47.793Z,58.00
2019-04-14T01:47:19.079Z,58.36
2019-04-14T01:47:51.101Z,58.77
2019-04-14T01:48:23.501Z,59.11
2019-04-14T01:48:54.973Z,59.50
2019-04-14T01:49:26.872Z,59.90
2019-04-14T01:49:59.390Z,60.21
2019-04-14T01:50:32.693Z,60.60
2019-04-14T01:51:07.069Z,60.88
2019-04-14T01:51:55.289Z,61.17
2019-04-14T01:52:45.754Z,61.23
2019-04-14T01:53:18.967Z,61.60
2019-04-14T01:53:53.162Z,62.48
2019-04-14T01:54:25.676Z,63.20
2019-04-14T01:55:17.747Z,64.24
2019-04-14T01:55:57.000Z,65.27
2019-04-14T01:56:47.144Z,64.59
2019-04-14T01:57:37.069Z,64.00
2019-04-14T01:58:10.324Z,62.80
2019-04-14T01:58:53.398Z,60.80
2019-04-14T01:59:24.718Z,60.00
2019-04-14T01:59:56.771Z,58.35
2019-04-14T02:00:29.118Z,56.76
2019-04-14T02:01:11.098Z,55.35
2019-04-14T02:01:44.163Z,54.81
2019-04-14T02:02:27.017Z,54.51
2019-04-14T02:02:58.340Z,54.54
2019-04-14T02:03:30.240Z,54.83
2019-04-14T02:04:02.816Z,55.11
2019-04-14T02:04:34.183Z,55.55
2019-04-14T02:05:06.040Z,56.06
2019-04-14T02:05:38.547Z,56.43
2019-04-14T02:06:09.824Z,56.84
2019-04-14T02:06:41.903Z,57.26
2019-04-14T02:07:14.378Z,57.80
2019-04-14T02:07:45.747Z,58.31
2019-04-14T02:08:17.749Z,58.79
2019-04-14T02:08:50.132Z,59.17
2019-04-14T02:09:22.945Z,59.24
2019-04-14T02:09:55.264Z,59.67
2019-04-14T02:10:27.962Z,59.93
2019-04-14T02:10:59.333Z,60.39
2019-04-14T02:11:31.388Z,60.76
2019-04-14T02:12:03.757Z,60.88
2019-04-14T02:12:35.129Z,61.18
2019-04-14T02:13:07.625Z,61.48
2019-04-14T02:13:39.651Z,61.93
2019-04-14T02:14:12.288Z,62.51
2019-04-14T02:14:43.744Z,63.29
2019-04-14T02:15:15.471Z,64.19
2019-04-14T02:15:46.693Z,64.47
2019-04-14T02:16:25.799Z,64.32
2019-04-14T02:16:56.046Z,63.75
2019-04-14T02:17:24.278Z,63.01
2019-04-14T02:17:56.605Z,62.06
2019-04-14T02:18:27.982Z,61.10
2019-04-14T02:19:00.221Z,60.01
2019-04-14T02:19:32.679Z,59.01
2019-04-14T02:20:05.961Z,57.83
2019-04-14T02:20:38.187Z,56.62
2019-04-14T02:21:10.632Z,55.83
2019-04-14T02:21:43.338Z,55.50
2019-04-14T02:22:15.890Z,55.52
2019-04-14T02:22:48.379Z,55.74
2019-04-14T02:23:19.756Z,55.95
2019-04-14T02:23:51.878Z,56.26
2019-04-14T02:24:24.207Z,56.78
2019-04-14T02:24:55.420Z,57.19
2019-04-14T02:25:27.483Z,57.77
2019-04-14T02:25:59.982Z,58.19
2019-04-14T02:26:31.318Z,58.53
2019-04-14T02:27:03.490Z,58.82
2019-04-14T02:27:35.973Z,59.17
2019-04-14T02:28:07.408Z,59.61
2019-04-14T02:28:39.681Z,60.12
2019-04-14T02:29:12.189Z,60.47
2019-04-14T02:29:43.526Z,60.82
2019-04-14T02:30:20.171Z,61.26
2019-04-14T02:30:56.706Z,61.69
2019-04-14T02:31:35.667Z,62.04
2019-04-14T02:32:25.512Z,62.40
2019-04-14T02:33:00.481Z,63.16
2019-04-14T02:33:37.775Z,64.11
2019-04-14T02:34:17.447Z,64.38
2019-04-14T02:34:45.479Z,64.06
2019-04-14T02:36:45.996Z,60.62
2019-04-14T02:37:19.667Z,59.41
2019-04-14T02:37:54.450Z,58.02
2019-04-14T02:38:33.959Z,56.52
2019-04-14T02:39:06.079Z,55.83
2019-04-14T02:39:38.992Z,55.37
2019-04-14T02:41:57.018Z,56.22
2019-04-14T02:42:31.192Z,56.63
2019-04-14T02:43:09.797Z,56.97
2019-04-14T02:43:29.915Z,57.47
2019-04-14T02:44:16.117Z,57.97
2019-04-14T02:44:38.012Z,58.32
2019-04-14T02:45:10.480Z,58.74
2019-04-14T02:46:49.740Z,59.87
2019-04-14T02:47:36.860Z,60.23
2019-04-14T02:49:39.011Z,61.42
2019-04-14T02:50:18.079Z,61.83
2019-04-14T02:50:30.633Z,62.20
2019-04-14T02:51:12.522Z,62.53
2019-04-14T02:51:41.504Z,63.17
2019-04-14T02:52:19.658Z,63.97
2019-04-14T02:54:37.043Z,62.58
2019-04-14T02:54:59.803Z,61.36
2019-04-14T02:55:37.990Z,60.44
2019-04-14T02:56:15.846Z,59.48
2019-04-14T02:56:43.393Z,58.01
2019-04-14T02:57:17.371Z,56.73
2019-04-14T02:57:44.800Z,55.61
2019-04-14T02:58:30.485Z,55.32
2019-04-14T02:58:52.370Z,55.32
2019-04-14T02:59:24.716Z,55.39
2019-04-14T02:59:58.751Z,55.65
2019-04-14T03:01:09.533Z,56.37
2019-04-14T03:01:45.200Z,56.95
2019-04-14T03:02:42.659Z,57.54
2019-04-14T03:03:23.461Z,57.93
2019-04-14T03:04:40.651Z,58.77
2019-04-14T03:05:00.035Z,58.99
2019-04-14T03:05:26.991Z,59.33
2019-04-14T03:06:33.541Z,59.89
2019-04-14T03:07:19.029Z,60.17
2019-04-14T03:07:46.979Z,60.48
2019-04-14T03:08:22.227Z,60.81
2019-04-14T03:08:51.320Z,61.11
2019-04-14T03:09:30.589Z,61.29
2019-04-14T03:11:03.134Z,62.18
2019-04-14T03:11:37.826Z,62.50
2019-04-14T03:12:09.771Z,63.18
2019-04-14T03:12:38.136Z,64.04
2019-04-14T03:13:27.174Z,64.40
2019-04-14T03:14:27.671Z,63.22
2019-04-14T03:14:53.762Z,62.16
2019-04-14T03:15:37.830Z,61.27
2019-04-14T03:17:11.133Z,59.35
2019-04-14T03:18:35.178Z,56.51
2019-04-14T03:19:14.379Z,55.27
2019-04-14T03:20:17.530Z,54.70
2019-04-14T03:21:01.594Z,54.78
2019-04-14T03:21:34.432Z,55.18
2019-04-14T03:22:28.925Z,55.46
2019-04-14T03:22:55.861Z,55.75
2019-04-14T03:24:50.412Z,57.22
2019-04-14T03:25:29.631Z,57.55
2019-04-14T03:26:15.549Z,58.22
2019-04-14T03:26:51.937Z,58.48
2019-04-14T03:27:31.224Z,58.77
2019-04-14T03:27:58.937Z,59.20
2019-04-14T03:29:16.591Z,59.79
2019-04-14T03:29:52.090Z,59.87
2019-04-14T03:30:51.220Z,60.33
2019-04-14T03:31:37.623Z,60.54
2019-04-14T03:32:04.670Z,60.43
2019-04-14T03:32:45.623Z,60.74
2019-04-14T03:33:27.426Z,60.99
2019-04-14T03:33:55.692Z,61.29
2019-04-14T03:35:27.138Z,61.87
2019-04-14T03:36:43.249Z,62.34
2019-04-14T03:37:37.640Z,62.92
2019-04-14T03:37:51.052Z,63.75
2019-04-14T03:38:24.676Z,64.04
2019-04-14T03:39:00.594Z,63.85
2019-04-14T03:39:44.221Z,62.94
2019-04-14T03:40:01.763Z,62.20
2019-04-14T03:41:45.591Z,58.93
2019-04-14T03:42:26.342Z,57.16
2019-04-14T03:42:54.310Z,55.70
2019-04-14T03:43:25.009Z,54.81
2019-04-14T03:43:57.742Z,54.26
2019-04-14T03:45:04.458Z,54.08
2019-04-14T03:45:46.749Z,54.14
2019-04-14T03:46:49.106Z,54.83
2019-04-14T03:47:19.487Z,55.11
2019-04-14T03:48:00.556Z,55.49
2019-04-14T03:48:44.335Z,55.90
2019-04-14T03:49:31.560Z,56.54
2019-04-14T03:50:05.996Z,56.80
2019-04-14T03:50:37.382Z,57.02
2019-04-14T03:51:16.690Z,57.42
2019-04-14T03:51:48.596Z,57.76
2019-04-14T03:52:12.997Z,57.98
2019-04-14T03:52:55.864Z,58.20
2019-04-14T03:54:03.649Z,58.71
2019-04-14T03:54:20.482Z,58.84
2019-04-14T03:54:50.151Z,59.10
2019-04-14T03:55:54.325Z,59.14
2019-04-14T03:56:44.334Z,59.11
2019-04-14T03:57:15.480Z,59.37
2019-04-14T03:57:47.635Z,60.08
2019-04-14T03:58:18.851Z,60.51
2019-04-14T03:58:51.123Z,60.80
2019-04-14T03:59:22.334Z,60.89
2019-04-14T03:59:54.208Z,61.07
2019-04-14T04:00:25.420Z,61.19
2019-04-14T04:00:57.595Z,61.49
2019-04-14T04:01:30.137Z,61.65
2019-04-14T04:02:01.488Z,61.90
2019-04-14T04:02:33.724Z,62.08
2019-04-14T04:03:06.256Z,62.13
2019-04-14T04:03:39.172Z,62.29
2019-04-14T04:04:11.775Z,62.28
2019-04-14T04:04:43.120Z,62.36
2019-04-14T04:05:15.174Z,62.80
2019-04-14T04:05:47.752Z,63.36
2019-04-14T04:06:20.259Z,63.69
2019-04-14T04:06:51.622Z,63.30
2019-04-14T04:07:23.567Z,62.68
2019-04-14T04:07:55.963Z,61.74
2019-04-14T04:08:27.287Z,60.53
2019-04-14T04:08:59.579Z,59.40
2019-04-14T04:09:32.900Z,57.96
2019-04-14T04:10:07.125Z,56.27
2019-04-14T04:10:58.298Z,55.29
2019-04-14T04:11:30.119Z,54.72
2019-04-14T04:12:01.412Z,54.53
2019-04-14T04:12:33.589Z,54.42
2019-04-14T04:13:06.173Z,54.58
2019-04-14T04:13:38.988Z,54.71
2019-04-14T04:14:11.654Z,54.78
2019-04-14T04:14:44.107Z,54.76
2019-04-14T04:15:15.462Z,55.05
2019-04-14T04:15:47.652Z,55.53
2019-04-14T04:16:20.740Z,55.81
2019-04-14T04:17:08.584Z,56.04
2019-04-14T04:17:45.171Z,56.07
2019-04-14T04:18:29.155Z,56.61
2019-04-14T04:19:07.405Z,56.62
2019-04-14T04:19:47.024Z,56.90
2019-04-14T04:20:24.027Z,57.31
2019-04-14T04:21:05.843Z,57.59
2019-04-14T04:21:55.247Z,57.73
2019-04-14T04:22:28.467Z,57.80
2019-04-14T04:23:10.118Z,58.26
2019-04-14T04:23:43.239Z,58.29
2019-04-14T04:24:33.552Z,58.52
2019-04-14T04:25:11.579Z,58.46
2019-04-14T04:25:59.693Z,58.89
2019-04-14T04:26:36.594Z,58.80
2019-04-14T04:27:13.517Z,59.26
2019-04-14T04:27:52.667Z,59.33
2019-04-14T04:28:23.933Z,59.52
2019-04-14T04:28:56.253Z,60.00
2019-04-14T04:29:29.426Z,60.24
2019-04-14T04:30:01.671Z,60.06
2019-04-14T04:30:36.276Z,60.09
2019-04-14T04:31:27.186Z,60.30
2019-04-14T04:32:03.488Z,60.15
2019-04-14T04:32:49.356Z,60.47
2019-04-14T04:33:22.578Z,60.54
2019-04-14T04:33:58.628Z,60.67
2019-04-14T04:34:31.819Z,60.73
2019-04-14T04:35:06.460Z,60.80
2019-04-14T04:35:43.660Z,61.13
2019-04-14T04:36:25.446Z,61.32
2019-04-14T04:37:04.544Z,60.98
2019-04-14T04:37:37.618Z,60.73
2019-04-14T04:38:16.277Z,60.69
2019-04-14T04:38:49.366Z,60.59
2019-04-14T04:39:23.586Z,60.52
2019-04-14T04:39:56.724Z,60.57
2019-04-14T04:40:31.099Z,60.58
2019-04-14T04:41:03.662Z,60.57
2019-04-14T04:41:36.347Z,60.69
2019-04-14T04:42:09.000Z,60.66
2019-04-14T04:42:41.537Z,60.76
2019-04-14T04:43:12.914Z,60.79
2019-04-14T04:43:45.124Z,60.59
2019-04-14T04:44:17.925Z,60.40
2019-04-14T04:44:49.237Z,60.24
2019-04-14T04:45:21.366Z,59.95
2019-04-14T04:45:53.709Z,59.93
2019-04-14T04:46:25.023Z,60.06
2019-04-14T04:46:56.961Z,59.86
2019-04-14T04:47:29.429Z,59.66
2019-04-14T04:48:00.704Z,59.50
2019-04-14T04:48:32.888Z,59.43
2019-04-14T04:49:11.741Z,59.47
2019-04-14T04:49:38.326Z,59.84
2019-04-14T04:50:10.690Z,59.69
2019-04-14T04:50:43.147Z,59.68
2019-04-14T04:51:14.368Z,59.58
2019-04-14T04:51:46.534Z,59.50
2019-04-14T04:52:19.047Z,59.42
2019-04-14T04:52:50.374Z,59.42
2019-04-14T04:53:22.339Z,59.46
2019-04-14T04:53:54.824Z,59.53
2019-04-14T04:54:26.042Z,59.62
2019-04-14T04:54:58.079Z,59.55
2019-04-14T04:55:30.396Z,59.26
2019-04-14T04:56:01.868Z,59.26
2019-04-14T04:56:34.061Z,59.34
2019-04-14T04:57:05.354Z,59.10
2019-04-14T04:57:37.301Z,58.85
2019-04-14T04:58:10.008Z,58.77
2019-04-14T04:58:41.374Z,58.70
2019-04-14T04:59:12.770Z,58.53
2019-04-14T04:59:45.189Z,58.69
2019-04-14T05:00:17.792Z,58.79
2019-04-14T05:00:52.282Z,58.75
2019-04-14T05:01:23.170Z,58.73
2019-04-14T05:01:54.481Z,58.94
2019-04-14T05:02:26.672Z,59.17
2019-04-14T05:02:59.294Z,59.11
2019-04-14T05:03:31.810Z,58.74
2019-04-14T05:04:03.083Z,58.58
2019-04-14T05:04:35.083Z,58.48
2019-04-14T05:06:03.075Z,58.48
2019-04-14T05:06:59.247Z,58.25
2019-04-14T05:07:31.682Z,58.51
2019-04-14T05:08:02.883Z,58.51
2019-04-14T05:08:35.395Z,58.54
2019-04-14T05:09:25.773Z,58.42
2019-04-14T05:10:11.034Z,58.39
2019-04-14T05:10:48.098Z,58.44
2019-04-14T05:11:23.052Z,58.50
2019-04-14T05:12:13.689Z,58.48
2019-04-14T05:12:47.862Z,58.19
2019-04-14T05:13:20.604Z,58.31
2019-04-14T05:13:53.834Z,58.25
2019-04-14T05:14:26.916Z,58.20
2019-04-14T05:14:58.836Z,58.32
2019-04-14T05:15:32.037Z,58.28
2019-04-14T05:16:04.209Z,58.32
2019-04-14T05:16:35.410Z,58.34
2019-04-14T05:17:07.927Z,58.50
2019-04-14T05:17:43.681Z,58.39
2019-04-14T05:18:16.092Z,58.19
2019-04-14T05:18:47.240Z,58.07
2019-04-14T05:19:25.705Z,58.14
2019-04-14T05:19:51.931Z,58.26
2019-04-14T05:20:23.264Z,58.38
2019-04-14T05:20:55.417Z,58.46
2019-04-14T05:21:27.761Z,58.53
2019-04-14T05:21:58.965Z,58.52
2019-04-14T05:22:31.064Z,58.45
2019-04-14T05:23:03.649Z,58.24
2019-04-14T05:23:34.975Z,58.19
2019-04-14T05:24:07.105Z,57.85
2019-04-14T05:24:39.650Z,57.82
2019-04-14T05:25:10.977Z,57.82
2019-04-14T05:25:43.033Z,57.94
2019-04-14T05:26:15.490Z,58.22
2019-04-14T05:26:46.808Z,58.31
2019-04-14T05:27:18.909Z,58.33
2019-04-14T05:27:50.191Z,58.23
2019-04-14T05:28:22.073Z,58.25
2019-04-14T05:28:53.381Z,58.23
2019-04-14T05:29:25.366Z,58.33
2019-04-14T05:29:57.944Z,58.39
2019-04-14T05:30:29.297Z,58.36
2019-04-14T05:31:01.272Z,58.18
2019-04-14T05:31:33.642Z,58.09
2019-04-14T05:32:05.017Z,58.01
2019-04-14T05:32:36.929Z,57.93
2019-04-14T05:33:09.506Z,57.90
2019-04-14T05:33:40.771Z,57.99
2019-04-14T05:34:12.915Z,57.99
2019-04-14T05:34:45.326Z,57.98
2019-04-14T05:35:17.030Z,58.10
2019-04-14T05:35:48.842Z,57.78
2019-04-14T05:36:21.417Z,57.74
2019-04-14T05:36:52.814Z,57.60
2019-04-14T05:37:24.732Z,57.58
2019-04-14T05:37:57.217Z,57.63
2019-04-14T05:38:31.843Z,57.56
2019-04-14T05:39:02.553Z,57.70
2019-04-14T05:39:35.451Z,57.78
2019-04-14T05:40:07.984Z,57.85
2019-04-14T05:40:40.718Z,57.85
2019-04-14T05:41:12.164Z,57.87
2019-04-14T05:41:54.945Z,57.74
2019-04-14T05:42:20.195Z,57.85
2019-04-14T05:42:51.613Z,57.96
2019-04-14T05:43:30.262Z,57.94
2019-04-14T05:43:59.719Z,57.96
2019-04-14T05:44:29.667Z,57.72
2019-04-14T05:45:02.323Z,57.84
2019-04-14T05:45:35.047Z,57.68
2019-04-14T05:46:07.642Z,57.80
2019-04-14T05:46:38.972Z,58.13
2019-04-14T05:47:11.129Z,58.01
2019-04-14T05:47:43.565Z,58.93
2019-04-14T05:48:15.996Z,58.36
2019-04-14T05:48:47.296Z,57.91
2019-04-14T05:49:28.607Z,58.17
2019-04-14T05:49:54.662Z,57.74
2019-04-14T05:50:24.976Z,57.35
2019-04-14T05:50:56.221Z,57.05
2019-04-14T05:51:28.400Z,57.09
2019-04-14T05:51:59.611Z,56.87
2019-04-14T05:52:31.812Z,57.08
2019-04-14T05:53:04.271Z,56.46
2019-04-14T05:53:35.636Z,56.29
2019-04-14T05:54:07.827Z,56.13
2019-04-14T05:54:40.333Z,56.05
2019-04-14T05:55:11.657Z,56.03
2019-04-14T05:55:43.837Z,55.91
2019-04-14T05:56:16.356Z,55.98
2019-04-14T05:56:47.716Z,55.93
2019-04-14T05:57:19.857Z,55.97
2019-04-14T05:57:52.381Z,56.20
2019-04-14T05:58:23.673Z,56.22
2019-04-14T05:58:55.770Z,56.29
2019-04-14T05:59:26.994Z,56.20
2019-04-14T05:59:59.390Z,56.01
2019-04-14T06:00:31.977Z,55.95
2019-04-14T06:01:03.306Z,56.09
2019-04-14T06:01:34.492Z,55.85
2019-04-14T06:02:05.705Z,55.79
2019-04-14T06:02:37.708Z,55.90
2019-04-14T06:03:10.184Z,55.79
2019-04-14T06:03:41.582Z,55.68
2019-04-14T06:04:13.613Z,55.63
2019-04-14T06:04:46.033Z,55.75
2019-04-14T06:05:17.343Z,55.63
2019-04-14T06:05:48.516Z,55.25
2019-04-14T06:06:19.742Z,55.31
2019-04-14T06:06:50.954Z,55.00
2019-04-14T06:07:22.188Z,54.76
2019-04-14T06:07:55.416Z,54.77
2019-04-14T06:08:26.511Z,54.75
2019-04-14T06:08:57.671Z,54.91
2019-04-14T06:09:29.024Z,55.12
2019-04-14T06:10:00.185Z,55.29
2019-04-14T06:10:32.824Z,55.87
2019-04-14T06:11:03.988Z,55.64
2019-04-14T06:11:35.221Z,55.34
2019-04-14T06:12:06.406Z,55.21
2019-04-14T06:12:38.180Z,55.22
2019-04-14T06:13:11.710Z,55.36
2019-04-14T06:13:42.596Z,55.11
2019-04-14T06:14:14.855Z,54.92
2019-04-14T06:14:46.128Z,54.78
2019-04-14T06:15:17.308Z,54.82
2019-04-14T06:15:48.502Z,55.07
2019-04-14T06:16:19.695Z,55.07
2019-04-14T06:16:50.915Z,54.90
2019-04-14T06:17:22.112Z,54.76
2019-04-14T06:17:53.339Z,54.57
2019-04-14T06:18:24.517Z,54.29
2019-04-14T06:18:55.731Z,54.05
2019-04-14T06:19:36.446Z,54.07
2019-04-14T06:20:00.023Z,54.11
2019-04-14T06:20:31.921Z,54.02
2019-04-14T06:21:03.228Z,54.28
2019-04-14T06:21:35.415Z,53.93
2019-04-14T06:22:06.610Z,54.13
2019-04-14T06:22:37.882Z,54.11
2019-04-14T06:23:09.144Z,54.64
2019-04-14T06:23:40.630Z,54.80
2019-04-14T06:24:11.898Z,54.63
2019-04-14T06:24:43.177Z,54.57
2019-04-14T06:25:14.437Z,53.98
2019-04-14T06:25:45.696Z,53.75
2019-04-14T06:26:16.954Z,54.27
2019-04-14T06:26:48.234Z,54.15
2019-04-14T06:27:19.472Z,54.22
2019-04-14T06:27:50.638Z,54.32
2019-04-14T06:28:21.858Z,54.56
2019-04-14T06:28:53.039Z,54.31
2019-04-14T06:29:24.266Z,53.86
2019-04-14T06:29:57.314Z,53.81
2019-04-14T06:30:40.563Z,53.55
2019-04-14T06:31:13.680Z,53.33
2019-04-14T06:31:59.690Z,53.33
2019-04-14T06:32:32.804Z,53.36
2019-04-14T06:33:23.863Z,53.99
2019-04-14T06:34:07.030Z,53.72
2019-04-14T06:34:40.403Z,53.37
2019-04-14T06:35:16.506Z,53.10
2019-04-14T06:36:07.652Z,53.13
2019-04-14T06:36:55.535Z,53.17
2019-04-14T06:37:34.366Z,53.28
2019-04-14T06:38:07.599Z,53.33
2019-04-14T06:38:57.103Z,52.95
2019-04-14T06:39:45.289Z,52.89
2019-04-14T06:40:16.451Z,52.67
2019-04-14T06:40:49.587Z,52.12
2019-04-14T06:41:20.744Z,52.07
2019-04-14T06:41:51.960Z,51.83
2019-04-14T06:42:24.133Z,51.48
2019-04-14T06:42:55.357Z,51.55
2019-04-14T06:43:26.551Z,51.49
2019-04-14T06:43:57.823Z,51.53
2019-04-14T06:44:29.101Z,51.50
2019-04-14T06:45:01.349Z,51.56
2019-04-14T06:45:32.535Z,51.14
2019-04-14T06:46:03.740Z,51.01
2019-04-14T06:46:34.943Z,51.11
2019-04-14T06:47:06.145Z,50.77
2019-04-14T06:47:37.662Z,50.71
2019-04-14T06:48:08.874Z,50.52
2019-04-14T06:48:40.054Z,49.97
2019-04-14T06:49:11.314Z,49.84
2019-04-14T06:49:48.770Z,50.12
2019-04-14T06:50:15.715Z,50.28
2019-04-14T06:50:46.984Z,50.20
2019-04-14T06:51:18.259Z,50.37
2019-04-14T06:51:49.517Z,50.33
2019-04-14T06:52:20.789Z,50.47
2019-04-14T06:52:52.036Z,50.45
2019-04-14T06:53:23.283Z,50.56
2019-04-14T06:53:54.491Z,50.62
2019-04-14T06:54:25.762Z,50.53
2019-04-14T06:54:57.023Z,50.70
2019-04-14T06:55:31.355Z,50.75
2019-04-14T06:56:02.949Z,50.34
2019-04-14T06:56:34.214Z,50.27
2019-04-14T06:57:05.526Z,50.04
2019-04-14T06:57:36.798Z,49.80
2019-04-14T06:58:08.441Z,49.46
2019-04-14T06:58:39.682Z,49.50
2019-04-14T06:59:10.875Z,49.48
2019-04-14T06:59:42.119Z,49.50
2019-04-14T07:00:13.405Z,49.35
2019-04-14T07:00:44.675Z,49.48
2019-04-14T07:01:15.952Z,49.45
2019-04-14T07:01:47.207Z,49.61
2019-04-14T07:02:18.490Z,49.54
2019-04-14T07:02:49.766Z,49.12
2019-04-14T07:03:21.100Z,49.00
2019-04-14T07:03:52.333Z,49.02
2019-04-14T07:04:23.494Z,48.53
2019-04-14T07:04:54.731Z,48.55
2019-04-14T07:05:25.887Z,48.68
2019-04-14T07:05:57.141Z,48.49
2019-04-14T07:06:28.301Z,48.51
2019-04-14T07:06:59.530Z,48.42
2019-04-14T07:07:30.701Z,48.59
2019-04-14T07:08:01.921Z,48.44
2019-04-14T07:08:33.075Z,48.39
2019-04-14T07:09:05.415Z,48.09
2019-04-14T07:09:36.776Z,47.91
2019-04-14T07:10:08.292Z,48.29
2019-04-14T07:10:39.450Z,48.57
2019-04-14T07:11:10.921Z,48.87
2019-04-14T07:11:42.089Z,48.85
2019-04-14T07:12:13.384Z,49.13
2019-04-14T07:12:44.618Z,49.06
2019-04-14T07:13:15.843Z,48.61
2019-04-14T07:13:48.217Z,48.59
2019-04-14T07:14:19.595Z,48.90
2019-04-14T07:14:50.753Z,48.58
2019-04-14T07:15:21.986Z,48.66
2019-04-14T07:15:53.146Z,48.84
2019-04-14T07:16:24.343Z,48.66
2019-04-14T07:16:55.555Z,48.63
2019-04-14T07:17:27.722Z,48.80
2019-04-14T07:17:58.888Z,48.48
2019-04-14T07:18:30.091Z,47.89
2019-04-14T07:19:01.287Z,47.65
2019-04-14T07:19:32.477Z,47.82
2019-04-14T07:20:05.010Z,47.52
2019-04-14T07:20:36.169Z,47.78
2019-04-14T07:21:07.748Z,47.37
2019-04-14T07:21:38.921Z,47.38
2019-04-14T07:22:11.386Z,47.20
2019-04-14T07:22:42.641Z,46.80
2019-04-14T07:23:13.952Z,46.83
2019-04-14T07:23:47.237Z,47.04
2019-04-14T07:24:18.381Z,47.42
2019-04-14T07:24:49.548Z,47.39
2019-04-14T07:25:20.795Z,47.30
2019-04-14T07:25:51.985Z,47.30
2019-04-14T07:26:23.201Z,47.10
2019-04-14T07:26:54.376Z,46.68
2019-04-14T07:27:25.633Z,46.54
2019-04-14T07:27:56.806Z,46.76
2019-04-14T07:28:28.039Z,46.77
2019-04-14T07:28:59.243Z,46.60
2019-04-14T07:29:32.381Z,46.61
2019-04-14T07:30:22.191Z,46.75
2019-04-14T07:30:58.006Z,46.98
2019-04-14T07:31:40.029Z,46.41